createdAt,value
2023-01-07T00:00:45.958Z,100954.85
2023-01-07T00:01:54.820Z,100953.14
2023-01-07T00:03:04.005Z,100961.77
2023-01-07T00:04:15.511Z,100966.14
2023-01-07T00:05:24.528Z,100975.69
2023-01-07T00:06:35.840Z,100973.95
2023-01-07T00:07:44.353Z,100972.27
2023-01-07T00:08:54.994Z,100979.30
2023-01-07T00:10:04.679Z,100975.80
2023-01-07T00:11:16.096Z,100976.55
2023-01-07T00:12:25.521Z,100973.98
2023-01-07T00:13:34.861Z,100973.94
2023-01-07T00:14:43.465Z,100968.77
2023-01-07T00:17:21.152Z,100971.55
2023-01-07T00:18:30.683Z,100974.14
2023-01-07T00:19:39.327Z,100971.55
2023-01-07T00:20:49.018Z,100975.06
2023-01-07T00:21:57.943Z,100972.46
2023-01-07T00:23:06.567Z,100972.50
2023-01-07T00:24:18.177Z,100964.70
2023-01-07T00:25:27.082Z,100974.33
2023-01-07T00:26:37.083Z,100971.61
2023-01-07T00:27:46.398Z,100968.05
2023-01-07T00:28:57.298Z,100963.58
2023-01-07T00:30:07.914Z,100967.09
2023-01-07T00:31:22.896Z,100969.69
2023-01-07T00:32:52.885Z,100963.47
2023-01-07T00:34:02.384Z,100970.34
2023-01-07T00:36:30.619Z,100965.64
2023-01-07T00:37:51.171Z,100965.51
2023-01-07T00:39:03.572Z,100966.47
2023-01-07T00:40:13.616Z,100972.70
2023-01-07T00:41:23.251Z,100984.12
2023-01-07T00:42:50.177Z,100979.82
2023-01-07T00:44:00.102Z,100979.82
2023-01-07T00:45:10.373Z,100992.68
2023-01-07T00:46:20.319Z,100990.98
2023-01-07T00:47:29.780Z,100992.77
2023-01-07T00:48:42.984Z,100989.32
2023-01-07T00:49:53.199Z,100994.56
2023-01-07T00:51:02.211Z,100996.11
2023-01-07T00:52:10.721Z,100997.91
2023-01-07T00:53:19.851Z,101003.79
2023-01-07T00:54:29.779Z,101003.71
2023-01-07T00:55:40.917Z,101001.98
2023-01-07T00:56:49.861Z,101006.45
2023-01-07T00:57:58.663Z,101001.28
2023-01-07T00:59:07.667Z,101001.34
2023-01-07T01:00:19.611Z,101000.54
2023-01-07T01:02:45.337Z,101002.45
2023-01-07T01:03:54.516Z,101001.50
2023-01-07T01:05:04.039Z,101005.09
2023-01-07T01:06:16.968Z,100999.11
2023-01-07T01:07:26.593Z,101004.48
2023-01-07T01:08:35.478Z,100990.58
2023-01-07T01:09:44.022Z,101002.59
2023-01-07T01:10:52.712Z,100999.97
2023-01-07T01:12:02.661Z,100998.19
2023-01-07T01:14:31.180Z,100999.11
2023-01-07T01:15:46.280Z,101000.77
2023-01-07T01:16:57.041Z,100998.07
2023-01-07T01:18:06.619Z,100994.68
2023-01-07T01:19:15.339Z,100999.98
2023-01-07T01:21:41.520Z,101003.77
2023-01-07T01:22:50.290Z,101006.21
2023-01-07T01:23:59.254Z,101009.61
2023-01-07T01:25:09.704Z,101011.39
2023-01-07T01:26:20.524Z,101009.65
2023-01-07T01:27:31.283Z,101013.10
2023-01-07T01:28:41.328Z,101014.00
2023-01-07T01:29:52.016Z,101013.17
2023-01-07T01:31:00.719Z,101009.66
2023-01-07T01:32:12.016Z,101010.58
2023-01-07T01:33:25.446Z,101005.39
2023-01-07T01:34:34.945Z,101003.72
2023-01-07T01:35:45.094Z,101000.33
2023-01-07T01:36:55.026Z,100995.98
2023-01-07T01:38:03.658Z,101003.08
2023-01-07T01:39:13.267Z,101002.25
2023-01-07T01:41:42.742Z,100986.68
2023-01-07T01:42:52.502Z,100995.33
2023-01-07T01:44:02.855Z,100997.09
2023-01-07T01:45:22.734Z,101002.16
2023-01-07T01:46:42.121Z,101005.01
2023-01-07T01:49:30.003Z,100991.12
2023-01-07T01:52:20.009Z,100992.70
2023-01-07T01:53:33.632Z,100994.41
2023-01-07T01:54:46.710Z,100994.46
2023-01-07T01:57:21.270Z,100996.28
2023-01-07T01:59:51.646Z,101000.82
2023-01-07T02:01:02.062Z,101001.64
2023-01-07T02:02:15.009Z,101004.96
2023-01-07T02:03:27.369Z,101007.54
2023-01-07T02:04:37.380Z,101005.84
2023-01-07T02:05:47.841Z,101008.53
2023-01-07T02:08:22.814Z,101007.97
2023-01-07T02:09:33.729Z,101012.11
2023-01-07T02:10:43.794Z,101003.39
2023-01-07T02:14:02.110Z,101006.27
2023-01-07T02:16:51.095Z,101016.76
2023-01-07T02:19:26.930Z,101001.60
2023-01-07T02:20:53.789Z,101011.09
2023-01-07T02:25:13.237Z,101009.72
2023-01-07T02:26:35.584Z,101005.20
2023-01-07T02:30:18.288Z,101006.44
2023-01-07T02:32:08.472Z,101013.42
2023-01-07T02:33:38.786Z,101008.45
2023-01-07T02:35:07.895Z,101008.62
2023-01-07T02:37:45.649Z,100999.27
2023-01-07T02:39:27.570Z,101005.33
2023-01-07T02:40:42.650Z,101008.00
2023-01-07T02:42:01.380Z,101007.98
2023-01-07T02:43:15.916Z,101004.08
2023-01-07T02:44:46.165Z,101010.10
2023-01-07T02:46:05.207Z,101007.52
2023-01-07T02:47:28.979Z,101011.91
2023-01-07T02:48:41.525Z,101009.36
2023-01-07T02:49:52.088Z,101008.56
2023-01-07T02:51:01.739Z,101008.66
2023-01-07T02:53:43.724Z,101007.95
2023-01-07T02:55:08.390Z,101004.30
2023-01-07T02:56:42.305Z,101003.37
2023-01-07T02:58:10.181Z,101008.55
2023-01-07T03:00:55.724Z,101015.78
2023-01-07T03:02:26.793Z,101013.94
2023-01-07T03:03:55.219Z,101019.27
2023-01-07T03:05:14.309Z,101017.59
2023-01-07T03:08:04.889Z,101019.38
2023-01-07T03:09:27.443Z,101014.03
2023-01-07T03:12:29.616Z,101023.59
2023-01-07T03:14:02.288Z,101026.13
2023-01-07T03:16:57.551Z,101038.09
2023-01-07T03:19:40.027Z,101025.88
2023-01-07T03:20:52.267Z,101037.12
2023-01-07T03:22:03.939Z,101038.77
2023-01-07T03:23:16.504Z,101041.03
2023-01-07T03:24:29.191Z,101039.11
2023-01-07T03:25:43.845Z,101040.06
2023-01-07T03:26:56.991Z,101035.57
2023-01-07T03:28:09.056Z,101042.61
2023-01-07T03:29:25.080Z,101041.80
2023-01-07T03:30:36.027Z,101033.13
2023-01-07T03:35:09.491Z,101036.65
2023-01-07T03:36:22.852Z,101044.23
2023-01-07T03:37:34.016Z,101046.41
2023-01-07T03:38:46.603Z,101040.32
2023-01-07T03:39:57.869Z,101040.42
2023-01-07T03:41:07.787Z,101040.77
2023-01-07T03:42:41.709Z,101040.19
2023-01-07T03:43:53.259Z,101046.27
2023-01-07T03:45:03.951Z,101044.88
2023-01-07T03:46:13.589Z,101044.27
2023-01-07T03:48:37.609Z,101033.39
2023-01-07T03:49:47.660Z,101027.25
2023-01-07T03:50:58.522Z,101025.70
2023-01-07T03:52:08.574Z,101029.99
2023-01-07T03:53:18.003Z,101035.27
2023-01-07T03:54:31.073Z,101037.23
2023-01-07T03:55:39.850Z,101036.59
2023-01-07T03:56:49.572Z,101040.45
2023-01-07T03:57:59.405Z,101044.66
2023-01-07T03:59:10.562Z,101038.64
2023-01-07T04:00:20.514Z,101032.80
2023-01-07T04:01:32.254Z,101032.88
2023-01-07T04:02:43.537Z,101034.70
2023-01-07T04:03:54.509Z,101040.89
2023-01-07T04:06:22.578Z,101035.90
2023-01-07T04:07:31.375Z,101039.78
2023-01-07T04:08:41.290Z,101044.20
2023-01-07T04:09:50.849Z,101049.11
2023-01-07T04:10:59.964Z,101058.05
2023-01-07T04:13:25.384Z,101049.19
2023-01-07T04:14:36.250Z,101051.83
2023-01-07T04:15:44.909Z,101054.55
2023-01-07T04:16:55.402Z,101060.77
2023-01-07T04:19:20.813Z,101062.77
2023-01-07T04:20:30.547Z,101067.81
2023-01-07T04:21:40.388Z,101067.52
2023-01-07T04:22:49.921Z,101071.91
2023-01-07T04:23:58.685Z,101071.97
2023-01-07T04:25:07.853Z,101075.45
2023-01-07T04:26:18.206Z,101068.58
2023-01-07T04:27:29.166Z,101070.50
2023-01-07T04:28:38.076Z,101086.28
2023-01-07T04:29:47.712Z,101071.02
2023-01-07T04:30:59.716Z,101076.98
2023-01-07T04:33:23.690Z,101081.33
2023-01-07T04:34:32.695Z,101086.30
2023-01-07T04:35:45.679Z,101081.72
2023-01-07T04:36:54.683Z,101078.02
2023-01-07T04:38:05.034Z,101077.80
2023-01-07T04:39:14.894Z,101080.80
2023-01-07T04:40:24.934Z,101078.78
2023-01-07T04:41:35.708Z,101075.60
2023-01-07T04:42:45.654Z,101077.37
2023-01-07T04:43:55.542Z,101079.98
2023-01-07T04:45:07.116Z,101084.50
2023-01-07T04:46:17.113Z,101084.58
2023-01-07T04:47:26.056Z,101093.45
2023-01-07T04:48:35.180Z,101082.17
2023-01-07T04:49:45.123Z,101096.12
2023-01-07T04:50:54.036Z,101079.51
2023-01-07T04:52:04.174Z,101087.69
2023-01-07T04:53:13.194Z,101084.30
2023-01-07T04:54:23.085Z,101085.98
2023-01-07T04:55:31.709Z,101083.69
2023-01-07T04:56:41.089Z,101087.25
2023-01-07T04:57:51.368Z,101089.69
2023-01-07T04:59:00.866Z,101091.60
2023-01-07T05:00:12.140Z,101094.33
2023-01-07T05:01:23.870Z,101089.16
2023-01-07T05:02:33.915Z,101090.11
2023-01-07T05:03:43.599Z,101083.23
2023-01-07T05:04:52.108Z,101085.92
2023-01-07T05:06:01.969Z,101090.38
2023-01-07T05:07:11.164Z,101088.50
2023-01-07T05:08:19.680Z,101082.73
2023-01-07T05:09:30.045Z,101090.70
2023-01-07T05:10:41.281Z,101086.09
2023-01-07T05:11:50.302Z,101084.09
2023-01-07T05:13:01.372Z,101088.67
2023-01-07T05:15:26.944Z,101092.61
2023-01-07T05:16:37.230Z,101093.54
2023-01-07T05:17:48.725Z,101093.87
2023-01-07T05:18:58.361Z,101092.82
2023-01-07T05:20:09.176Z,101096.56
2023-01-07T05:22:33.983Z,101088.99
2023-01-07T05:25:00.032Z,101094.21
2023-01-07T05:26:09.563Z,101098.33
2023-01-07T05:27:18.794Z,101097.23
2023-01-07T05:28:27.916Z,101103.47
2023-01-07T05:29:37.745Z,101098.88
2023-01-07T05:32:04.458Z,101108.83
2023-01-07T05:33:14.828Z,101105.23
2023-01-07T05:34:24.461Z,101114.02
2023-01-07T05:35:35.019Z,101109.77
2023-01-07T05:36:44.324Z,101112.39
2023-01-07T05:37:53.150Z,101120.38
2023-01-07T05:39:02.817Z,101113.47
2023-01-07T05:40:13.507Z,101120.28
2023-01-07T05:42:37.145Z,101122.31
2023-01-07T05:43:46.709Z,101128.92
2023-01-07T05:46:10.546Z,101118.13
2023-01-07T05:47:22.385Z,101132.70
2023-01-07T05:49:46.022Z,101128.03
2023-01-07T05:50:55.895Z,101131.77
2023-01-07T05:52:04.850Z,101132.95
2023-01-07T05:53:14.315Z,101140.06
2023-01-07T05:54:23.979Z,101144.16
2023-01-07T05:55:33.931Z,101142.64
2023-01-07T05:56:43.581Z,101133.19
2023-01-07T05:57:53.176Z,101137.56
2023-01-07T05:59:08.616Z,101144.44
2023-01-07T06:00:20.263Z,101147.05
2023-01-07T06:02:44.882Z,101142.21
2023-01-07T06:03:53.761Z,101146.41
2023-01-07T06:05:05.098Z,101153.49
2023-01-07T06:06:14.656Z,101153.10
2023-01-07T06:07:23.290Z,101154.97
2023-01-07T06:08:35.830Z,101162.86
2023-01-07T06:09:44.311Z,101161.08
2023-01-07T06:10:54.665Z,101166.42
2023-01-07T06:12:05.250Z,101166.52
2023-01-07T06:14:31.272Z,101163.59
2023-01-07T06:15:40.797Z,101170.44
2023-01-07T06:18:04.288Z,101162.15
2023-01-07T06:19:14.823Z,101168.89
2023-01-07T06:20:24.620Z,101170.66
2023-01-07T06:23:07.872Z,101171.89
2023-01-07T06:24:16.754Z,101170.69
2023-01-07T06:25:25.768Z,101176.50
2023-01-07T06:26:35.364Z,101172.20
2023-01-07T06:27:45.379Z,101179.25
2023-01-07T06:28:54.949Z,101174.44
2023-01-07T06:30:05.949Z,101179.32
2023-01-07T06:32:29.961Z,101176.47
2023-01-07T06:33:40.128Z,101192.05
2023-01-07T06:36:05.700Z,101175.10
2023-01-07T06:37:14.320Z,101183.61
2023-01-07T06:38:23.225Z,101179.31
2023-01-07T06:39:31.741Z,101180.52
2023-01-07T06:40:41.261Z,101183.25
2023-01-07T06:41:50.285Z,101176.55
2023-01-07T06:44:14.241Z,101183.19
2023-01-07T06:45:23.171Z,101190.06
2023-01-07T06:46:31.956Z,101191.53
2023-01-07T06:47:40.873Z,101188.86
2023-01-07T06:48:52.469Z,101192.42
2023-01-07T06:51:18.162Z,101195.38
2023-01-07T06:52:26.939Z,101196.75
2023-01-07T06:53:35.549Z,101186.41
2023-01-07T06:56:00.942Z,101201.47
2023-01-07T06:58:25.465Z,101202.70
2023-01-07T06:59:34.212Z,101199.98
2023-01-07T07:00:43.119Z,101201.80
2023-01-07T07:01:53.939Z,101206.55
2023-01-07T07:03:02.834Z,101209.63
2023-01-07T07:04:13.346Z,101200.09
2023-01-07T07:06:37.598Z,101201.02
2023-01-07T07:07:47.156Z,101214.52
2023-01-07T07:08:55.667Z,101222.59
2023-01-07T07:11:21.899Z,101212.97
2023-01-07T07:12:30.515Z,101214.67
2023-01-07T07:14:53.923Z,101217.84
2023-01-07T07:16:02.803Z,101225.18
2023-01-07T07:17:12.069Z,101222.69
2023-01-07T07:18:21.430Z,101228.93
2023-01-07T07:19:30.656Z,101238.17
2023-01-07T07:20:40.267Z,101231.36
2023-01-07T07:21:49.028Z,101233.41
2023-01-07T07:22:57.570Z,101230.23
2023-01-07T07:24:07.636Z,101230.91
2023-01-07T07:25:16.427Z,101237.20
2023-01-07T07:26:25.846Z,101239.34
2023-01-07T07:28:50.281Z,101248.29
2023-01-07T07:29:59.348Z,101250.00
2023-01-07T07:31:09.562Z,101256.36
2023-01-07T07:32:18.820Z,101258.05
2023-01-07T07:34:43.721Z,101254.53
2023-01-07T07:35:54.173Z,101245.70
2023-01-07T07:37:03.381Z,101252.01
2023-01-07T07:39:28.012Z,101253.50
2023-01-07T07:40:38.965Z,101253.41
2023-01-07T07:41:47.474Z,101257.83
2023-01-07T07:44:15.957Z,101253.79
2023-01-07T07:45:24.390Z,101258.13
2023-01-07T07:46:35.521Z,101261.73
2023-01-07T07:48:58.940Z,101259.56
2023-01-07T07:50:08.441Z,101261.22
2023-01-07T07:51:17.372Z,101266.59
2023-01-07T07:52:26.355Z,101260.53
2023-01-07T07:53:36.906Z,101266.59
2023-01-07T07:54:45.421Z,101254.37
2023-01-07T07:55:54.315Z,101255.30
2023-01-07T07:57:03.426Z,101257.14
2023-01-07T07:58:12.737Z,101251.16
2023-01-07T07:59:21.562Z,101265.23
2023-01-07T08:00:30.359Z,101265.28
2023-01-07T08:01:39.419Z,101264.43
2023-01-07T08:02:49.047Z,101266.17
2023-01-07T08:04:01.716Z,101273.17
2023-01-07T08:05:12.609Z,101273.13
2023-01-07T08:07:38.903Z,101266.92
2023-01-07T08:08:49.115Z,101272.66
2023-01-07T08:11:12.731Z,101272.11
2023-01-07T08:13:36.136Z,101260.13
2023-01-07T08:14:44.669Z,101267.89
2023-01-07T08:15:53.411Z,101265.32
2023-01-07T08:17:03.360Z,101271.56
2023-01-07T08:19:28.592Z,101260.36
2023-01-07T08:21:54.143Z,101264.86
2023-01-07T08:23:05.043Z,101268.06
2023-01-07T08:24:13.371Z,101266.45
2023-01-07T08:25:21.926Z,101267.38
2023-01-07T08:27:46.026Z,101274.80
2023-01-07T08:30:11.259Z,101264.64
2023-01-07T08:31:19.940Z,101281.19
2023-01-07T08:32:28.474Z,101280.45
2023-01-07T08:33:40.321Z,101280.59
2023-01-07T08:34:49.876Z,101279.81
2023-01-07T08:37:13.958Z,101273.08
2023-01-07T08:39:39.311Z,101273.22
2023-01-07T08:40:51.838Z,101282.70
2023-01-07T08:42:00.463Z,101270.53
2023-01-07T08:43:09.585Z,101277.39
2023-01-07T08:44:19.230Z,101277.25
2023-01-07T08:45:32.317Z,101280.64
2023-01-07T08:46:42.680Z,101287.56
2023-01-07T08:47:51.602Z,101276.18
2023-01-07T08:49:00.613Z,101277.01
2023-01-07T08:50:10.071Z,101281.30
2023-01-07T08:52:33.561Z,101274.14
2023-01-07T08:54:57.528Z,101277.13
2023-01-07T08:57:21.625Z,101269.40
2023-01-07T08:58:31.372Z,101267.58
2023-01-07T08:59:40.277Z,101265.93
2023-01-07T09:00:49.321Z,101273.87
2023-01-07T09:01:59.411Z,101278.31
2023-01-07T09:04:23.585Z,101265.53
2023-01-07T09:05:35.148Z,101266.33
2023-01-07T09:06:43.608Z,101271.73
2023-01-07T09:07:53.385Z,101270.13
2023-01-07T09:09:03.089Z,101272.73
2023-01-07T09:11:22.512Z,101268.28
2023-01-07T09:12:32.128Z,101267.32
2023-01-07T09:13:40.659Z,101268.31
2023-01-07T09:14:50.256Z,101267.52
2023-01-07T09:16:00.702Z,101264.14
2023-01-07T09:17:09.770Z,101263.29
2023-01-07T09:19:34.594Z,101268.63
2023-01-07T09:20:44.577Z,101265.80
2023-01-07T09:21:53.502Z,101264.06
2023-01-07T09:23:02.305Z,101261.39
2023-01-07T09:24:11.139Z,101264.91
2023-01-07T09:26:28.323Z,101262.33
2023-01-07T09:28:52.335Z,101258.77
2023-01-07T09:30:01.852Z,101261.28
2023-01-07T09:31:11.671Z,101263.11
2023-01-07T09:32:21.661Z,101257.90
2023-01-07T09:33:30.466Z,101263.53
2023-01-07T09:35:48.597Z,101252.82
2023-01-07T09:36:58.238Z,101257.20
2023-01-07T09:38:07.763Z,101261.30
2023-01-07T09:39:16.407Z,101259.63
2023-01-07T09:40:28.847Z,101253.66
2023-01-07T09:43:12.744Z,101251.71
2023-01-07T09:45:52.773Z,101254.20
2023-01-07T09:47:06.701Z,101259.42
2023-01-07T09:48:22.961Z,101259.58
2023-01-07T09:49:32.767Z,101244.81
2023-01-07T09:51:05.708Z,101249.19
2023-01-07T09:55:06.779Z,101251.17
2023-01-07T09:56:27.868Z,101252.23
2023-01-07T09:57:36.971Z,101241.41
2023-01-07T09:58:48.632Z,101245.59
2023-01-07T12:12:52.520Z,101257.63
2023-01-07T12:14:08.807Z,101263.47
2023-01-07T12:15:40.973Z,101266.40
2023-01-07T12:16:51.359Z,101274.94
2023-01-07T12:18:06.437Z,101265.64
2023-01-07T12:21:14.249Z,101270.56
2023-01-07T12:22:46.557Z,101272.33
2023-01-07T12:25:34.644Z,101280.78
2023-01-07T12:31:04.239Z,101270.22
2023-01-07T12:32:28.718Z,101279.73
2023-01-07T12:33:53.293Z,101274.68
2023-01-07T12:35:18.821Z,101275.45
2023-01-07T12:38:11.912Z,101265.30
2023-01-07T12:40:44.123Z,101266.27
2023-01-07T12:42:16.561Z,101273.97
2023-01-07T12:43:33.078Z,101275.77
2023-01-07T12:46:04.663Z,101275.34
2023-01-07T12:47:31.026Z,101283.07
2023-01-07T12:51:44.103Z,101270.31
2023-01-07T12:53:06.015Z,101279.83
2023-01-07T12:54:52.060Z,101281.63
2023-01-07T12:57:35.195Z,101278.10
2023-01-07T12:59:02.564Z,101280.50
2023-01-07T13:00:22.307Z,101283.03
2023-01-07T13:03:01.713Z,101279.62
2023-01-07T13:07:03.722Z,101280.66
2023-01-07T13:09:53.941Z,101276.38
2023-01-07T13:12:45.607Z,101280.67
2023-01-07T13:13:55.852Z,101292.73
2023-01-07T13:16:28.514Z,101283.34
2023-01-07T13:17:37.563Z,101290.14
2023-01-07T13:20:02.787Z,101296.42
2023-01-07T13:22:38.461Z,101290.23
2023-01-07T13:23:53.784Z,101289.12
2023-01-07T13:25:21.424Z,101293.97
2023-01-07T13:26:47.106Z,101287.08
2023-01-07T13:28:30.163Z,101281.06
2023-01-07T13:33:16.839Z,101277.95
2023-01-07T13:34:42.109Z,101283.78
2023-01-07T13:37:37.720Z,101286.41
2023-01-07T13:41:05.079Z,101280.27
2023-01-07T13:42:44.380Z,101277.41
2023-01-07T13:44:24.457Z,101287.87
2023-01-07T13:45:36.645Z,101299.84
2023-01-07T13:48:05.533Z,101305.13
2023-01-07T13:50:46.531Z,101301.77
2023-01-07T13:52:15.188Z,101296.48
2023-01-07T13:53:28.004Z,101295.75
2023-01-07T13:54:52.930Z,101298.52
2023-01-07T13:56:20.439Z,101291.64
2023-01-07T13:57:34.118Z,101295.14
2023-01-07T13:58:57.464Z,101295.10
2023-01-07T14:01:48.074Z,101291.11
2023-01-07T14:03:02.040Z,101293.50
2023-01-07T14:04:32.682Z,101301.30
2023-01-07T14:05:41.324Z,101298.54
2023-01-07T14:08:08.742Z,101297.77
2023-01-07T14:09:21.030Z,101300.19
2023-01-07T14:10:36.161Z,101298.47
2023-01-07T14:13:41.158Z,101289.05
2023-01-07T14:14:57.183Z,101300.19
2023-01-07T14:16:27.593Z,101303.70
2023-01-07T14:19:51.782Z,101299.58
2023-01-07T14:21:21.009Z,101307.34
2023-01-07T14:22:51.527Z,101314.34
2023-01-07T14:26:02.657Z,101306.61
2023-01-07T14:27:33.349Z,101318.68
2023-01-07T14:29:19.052Z,101316.09
2023-01-07T14:30:31.344Z,101320.45
2023-01-07T14:31:42.299Z,101323.91
2023-01-07T14:33:03.778Z,101327.44
2023-01-07T14:34:26.333Z,101322.27
2023-01-07T14:35:41.298Z,101319.72
2023-01-07T14:37:08.546Z,101325.92
2023-01-07T14:38:32.979Z,101333.00
2023-01-07T14:39:45.432Z,101333.05
2023-01-07T14:42:24.077Z,101329.84
2023-01-07T14:43:46.448Z,101334.91
2023-01-07T14:46:26.189Z,101340.32
2023-01-07T14:47:46.068Z,101342.73
2023-01-07T14:50:37.503Z,101341.09
2023-01-07T14:53:56.260Z,101352.41
2023-01-07T14:55:12.234Z,101353.95
2023-01-07T14:56:28.976Z,101352.20
2023-01-07T14:57:47.932Z,101360.88
2023-01-07T14:59:18.929Z,101358.25
2023-01-07T15:00:56.015Z,101343.47
2023-01-07T15:04:23.973Z,101350.59
2023-01-07T15:05:57.005Z,101344.30
2023-01-07T15:08:46.118Z,101350.55
2023-01-07T15:11:51.927Z,101346.84
2023-01-07T15:13:21.436Z,101353.66
2023-01-07T15:16:11.860Z,101344.88
2023-01-07T15:17:21.150Z,101348.02
2023-01-07T15:18:36.204Z,101353.97
2023-01-07T15:19:45.634Z,101355.73
2023-01-07T15:24:00.956Z,101351.63
2023-01-07T15:26:50.996Z,101354.02
2023-01-07T15:28:32.560Z,101351.45
2023-01-07T15:29:57.319Z,101353.48
2023-01-07T15:31:26.542Z,101358.78
2023-01-07T15:32:41.939Z,101357.91
2023-01-07T15:35:24.777Z,101363.06
2023-01-07T15:36:47.849Z,101369.92
2023-01-07T15:37:56.771Z,101367.28
2023-01-07T15:39:05.533Z,101373.35
2023-01-07T15:40:20.048Z,101362.89
2023-01-07T15:42:53.078Z,101356.17
2023-01-07T15:44:03.322Z,101366.47
2023-01-07T15:46:37.444Z,101367.56
2023-01-07T15:47:46.895Z,101370.89
2023-01-07T15:49:07.701Z,101357.70
2023-01-07T15:50:33.293Z,101361.80
2023-01-07T15:51:44.636Z,101362.61
2023-01-07T15:54:35.391Z,101367.90
2023-01-07T15:55:51.566Z,101369.52
2023-01-07T15:57:04.096Z,101373.04
2023-01-07T15:58:18.414Z,101375.71
2023-01-07T15:59:30.674Z,101378.44
2023-01-07T16:00:41.497Z,101371.47
2023-01-07T16:03:12.020Z,101375.16
2023-01-07T16:05:46.778Z,101377.13
2023-01-07T16:08:19.597Z,101373.27
2023-01-07T16:09:29.309Z,101382.53
2023-01-07T16:10:37.940Z,101378.02
2023-01-07T16:13:05.778Z,101372.92
2023-01-07T16:14:18.947Z,101370.91
2023-01-07T16:15:31.350Z,101368.35
2023-01-07T16:16:40.623Z,101367.55
2023-01-07T16:17:58.515Z,101374.52
2023-01-07T16:19:17.683Z,101369.46
2023-01-07T16:20:33.925Z,101368.59
2023-01-07T16:23:14.254Z,101364.39
2023-01-07T16:24:24.037Z,101367.78
2023-01-07T16:25:39.185Z,101368.27
2023-01-07T16:29:34.983Z,101361.86
2023-01-07T16:30:46.105Z,101374.70
2023-01-07T16:31:56.366Z,101375.70
2023-01-07T16:33:06.029Z,101368.11
2023-01-07T16:34:30.133Z,101372.61
2023-01-07T16:35:39.082Z,101366.45
2023-01-07T16:36:49.705Z,101368.32
2023-01-07T16:38:01.555Z,101368.35
2023-01-07T16:39:23.246Z,101366.61
2023-01-07T16:40:38.735Z,101364.09
2023-01-07T16:41:48.084Z,101370.16
2023-01-07T16:42:57.079Z,101361.35
2023-01-07T16:44:07.984Z,101373.33
2023-01-07T16:45:27.514Z,101371.47
2023-01-07T16:46:41.271Z,101364.44
2023-01-07T16:48:17.966Z,101370.56
2023-01-07T16:49:29.415Z,101365.83
2023-01-07T16:52:08.509Z,101358.77
2023-01-07T16:53:30.067Z,101356.86
2023-01-07T16:54:40.908Z,101363.95
2023-01-07T16:55:54.403Z,101362.44
2023-01-07T16:58:50.345Z,101349.91
2023-01-07T17:00:03.542Z,101358.92
2023-01-07T17:01:16.730Z,101352.37
2023-01-07T17:04:05.753Z,101350.50
2023-01-07T17:05:19.124Z,101349.54
2023-01-07T17:07:50.821Z,101345.55
2023-01-07T17:08:59.554Z,101344.08
2023-01-07T17:11:38.754Z,101342.69
2023-01-07T17:13:03.852Z,101348.70
2023-01-07T17:15:51.799Z,101336.80
2023-01-07T17:17:09.114Z,101348.76
2023-01-07T17:18:28.282Z,101355.58
2023-01-07T17:19:40.638Z,101356.39
2023-01-07T17:20:52.815Z,101367.90
2023-01-07T17:22:02.131Z,101364.50
2023-01-07T17:23:29.605Z,101366.27
2023-01-07T17:26:01.008Z,101359.77
2023-01-07T17:28:44.189Z,101369.64
2023-01-07T17:29:54.347Z,101364.29
2023-01-07T17:31:04.939Z,101359.97
2023-01-07T17:32:15.132Z,101363.42
2023-01-07T17:33:25.139Z,101354.68
2023-01-07T17:34:34.020Z,101357.30
2023-01-07T17:35:46.796Z,101349.45
2023-01-07T17:36:56.846Z,101355.52
2023-01-07T17:39:22.189Z,101347.38
2023-01-07T17:40:30.929Z,101348.76
2023-01-07T17:41:58.176Z,101347.91
2023-01-07T17:43:34.260Z,101339.25
2023-01-07T17:45:59.635Z,101336.23
2023-01-07T17:47:12.444Z,101340.42
2023-01-07T17:49:36.513Z,101334.59
2023-01-07T17:50:46.165Z,101341.41
2023-01-07T17:51:55.034Z,101345.80
2023-01-07T17:53:04.510Z,101346.64
2023-01-07T17:55:39.490Z,101341.67
2023-01-07T17:58:06.101Z,101348.76
2023-01-07T17:59:17.945Z,101353.83
2023-01-07T18:01:50.055Z,101359.30
2023-01-07T20:40:44.456Z,101470.06
2023-01-07T20:41:54.171Z,101470.11
2023-01-07T20:43:02.683Z,101470.31
2023-01-07T20:44:12.300Z,101477.45
2023-01-07T20:45:21.639Z,101471.42
2023-01-07T20:47:48.763Z,101470.82
2023-01-07T20:48:58.907Z,101480.20
2023-01-07T20:50:09.960Z,101470.63
2023-01-07T20:51:19.107Z,101475.91
2023-01-07T20:52:28.110Z,101468.11
2023-01-07T20:53:37.176Z,101484.66
2023-01-07T20:54:47.392Z,101483.85
2023-01-07T20:57:32.834Z,101484.28
2023-01-07T20:58:41.952Z,101481.41
2023-01-07T20:59:50.872Z,101486.63
2023-01-07T21:01:04.779Z,101494.30
2023-01-07T21:02:17.414Z,101488.41
2023-01-07T21:03:26.759Z,101490.32
2023-01-07T21:04:35.252Z,101486.16
2023-01-07T21:05:45.486Z,101482.84
2023-01-07T21:06:54.888Z,101482.00
2023-01-07T21:08:03.506Z,101482.00
2023-01-07T21:09:12.171Z,101480.22
2023-01-07T21:10:22.786Z,101487.16
2023-01-07T21:11:31.403Z,101481.93
2023-01-07T21:12:40.041Z,101486.19
2023-01-07T21:13:50.475Z,101482.70
2023-01-07T21:14:58.998Z,101484.52
2023-01-07T21:16:08.181Z,101490.67
2023-01-07T21:17:17.128Z,101482.90
2023-01-07T21:18:25.639Z,101483.86
2023-01-07T21:19:37.201Z,101480.41
2023-01-07T21:20:47.543Z,101477.80
2023-01-07T21:21:56.436Z,101484.83
2023-01-07T21:23:04.949Z,101483.18
2023-01-07T21:25:30.556Z,101472.16
2023-01-07T21:26:39.183Z,101474.47
2023-01-07T21:27:48.088Z,101472.66
2023-01-07T21:28:58.145Z,101463.87
2023-01-07T21:31:26.885Z,101460.61
2023-01-07T21:32:35.567Z,101462.05
2023-01-07T21:33:44.972Z,101474.19
2023-01-07T21:34:53.599Z,101473.28
2023-01-07T21:36:19.365Z,101474.09
2023-01-07T21:38:44.399Z,101475.21
2023-01-07T21:39:53.816Z,101474.05
2023-01-07T21:42:24.638Z,101459.37
2023-01-07T21:43:34.483Z,101467.83
2023-01-07T21:44:43.211Z,101473.89
2023-01-07T21:45:51.760Z,101472.95
2023-01-07T21:47:07.963Z,101466.05
2023-01-07T21:48:16.956Z,101466.89
2023-01-07T21:49:25.724Z,101467.77
2023-01-07T21:50:34.863Z,101474.80
2023-01-07T21:51:43.399Z,101474.80
2023-01-07T21:52:53.143Z,101467.83
2023-01-07T21:54:01.901Z,101467.86
2023-01-07T21:55:11.068Z,101474.80
2023-01-07T21:56:20.038Z,101468.67
2023-01-07T21:58:45.750Z,101474.05
2023-01-07T21:59:54.443Z,101468.53
2023-01-07T22:01:07.503Z,101472.89
2023-01-07T22:02:18.139Z,101473.73
2023-01-07T22:03:29.317Z,101472.02
2023-01-07T22:04:39.301Z,101476.31
2023-01-07T22:07:19.555Z,101473.09
2023-01-07T22:08:29.527Z,101473.70
2023-01-07T22:09:38.140Z,101477.25
2023-01-07T22:12:05.176Z,101458.24
2023-01-07T22:13:13.695Z,101472.80
2023-01-07T22:14:23.757Z,101478.02
2023-01-07T22:15:32.437Z,101477.13
2023-01-07T22:16:42.651Z,101474.50
2023-01-07T22:19:06.256Z,101478.28
2023-01-07T22:20:17.102Z,101471.13